sensor_id;sensor_type;location;lat;lon;timestamp;pressure;altitude;pressure_sealevel;temperature;humidity
34979;BME280;21185;50.978;13.720;2023-04-02T00:00:35;97361.41;;;10.14;76.93
34979;BME280;21185;50.978;13.720;2023-04-02T00:05:47;97364.28;;;10.04;77.26
34979;BME280;21185;50.978;13.720;2023-04-02T00:10:58;97369.00;;;10.00;77.09
34979;BME280;21185;50.978;13.720;2023-04-02T00:16:03;97386.19;;;9.87;77.48
34979;BME280;21185;50.978;13.720;2023-04-02T00:21:17;97399.59;;;9.76;77.98
34979;BME280;21185;50.978;13.720;2023-04-02T00:31:24;97419.31;;;9.77;77.50
34979;BME280;21185;50.978;13.720;2023-04-02T00:36:29;97413.78;;;9.65;77.47
34979;BME280;21185;50.978;13.720;2023-04-02T00:41:32;97422.59;;;9.56;77.65
34979;BME280;21185;50.978;13.720;2023-04-02T00:46:42;97431.25;;;9.48;77.80
34979;BME280;21185;50.978;13.720;2023-04-02T00:51:55;97444.38;;;9.47;77.91
34979;BME280;21185;50.978;13.720;2023-04-02T00:56:59;97443.91;;;9.43;77.67
34979;BME280;21185;50.978;13.720;2023-04-02T01:07:46;97466.94;;;9.38;77.39
34979;BME280;21185;50.978;13.720;2023-04-02T01:23:29;97482.66;;;9.14;77.78
34979;BME280;21185;50.978;13.720;2023-04-02T01:34:17;97502.81;;;8.95;77.57
34979;BME280;21185;50.978;13.720;2023-04-02T01:39:54;97517.41;;;8.88;77.89
34979;BME280;21185;50.978;13.720;2023-04-02T01:45:20;97527.13;;;8.86;77.78
34979;BME280;21185;50.978;13.720;2023-04-02T01:50:33;97536.19;;;8.82;77.52
34979;BME280;21185;50.978;13.720;2023-04-02T01:55:52;97547.22;;;8.76;77.40
34979;BME280;21185;50.978;13.720;2023-04-02T02:01:07;97560.00;;;8.69;77.13
34979;BME280;21185;50.978;13.720;2023-04-02T02:06:17;97566.81;;;8.70;76.66
34979;BME280;21185;50.978;13.720;2023-04-02T02:11:24;97576.06;;;8.57;76.99
34979;BME280;21185;50.978;13.720;2023-04-02T02:16:29;97579.63;;;8.48;76.90
34979;BME280;21185;50.978;13.720;2023-04-02T02:21:41;97587.56;;;8.38;76.82
34979;BME280;21185;50.978;13.720;2023-04-02T02:26:45;97597.09;;;8.29;76.82
34979;BME280;21185;50.978;13.720;2023-04-02T02:31:52;97612.13;;;8.26;77.17
34979;BME280;21185;50.978;13.720;2023-04-02T02:37:16;97619.56;;;8.29;77.02
34979;BME280;21185;50.978;13.720;2023-04-02T02:42:49;97627.31;;;8.29;76.67
34979;BME280;21185;50.978;13.720;2023-04-02T02:47:54;97632.31;;;8.22;76.51
34979;BME280;21185;50.978;13.720;2023-04-02T02:52:58;97645.56;;;8.19;76.20
34979;BME280;21185;50.978;13.720;2023-04-02T02:58:07;97654.94;;;8.12;75.97
34979;BME280;21185;50.978;13.720;2023-04-02T03:03:29;97663.31;;;7.98;76.50
34979;BME280;21185;50.978;13.720;2023-04-02T03:08:42;97668.31;;;7.91;76.33
34979;BME280;21185;50.978;13.720;2023-04-02T03:13:52;97679.13;;;7.87;76.32
34979;BME280;21185;50.978;13.720;2023-04-02T03:19:04;97690.44;;;7.86;76.39
34979;BME280;21185;50.978;13.720;2023-04-02T03:24:28;97699.47;;;7.82;76.29
34979;BME280;21185;50.978;13.720;2023-04-02T03:29:35;97706.09;;;7.84;76.09
34979;BME280;21185;50.978;13.720;2023-04-02T03:34:45;97719.34;;;7.89;75.84
34979;BME280;21185;50.978;13.720;2023-04-02T03:39:59;97728.84;;;7.80;75.52
34979;BME280;21185;50.978;13.720;2023-04-02T03:55:21;97764.28;;;7.62;75.59
34979;BME280;21185;50.978;13.720;2023-04-02T04:00:38;97780.09;;;7.59;75.77
34979;BME280;21185;50.978;13.720;2023-04-02T04:05:56;97799.75;;;7.52;75.76
34979;BME280;21185;50.978;13.720;2023-04-02T04:11:03;97808.78;;;7.48;75.38
34979;BME280;21185;50.978;13.720;2023-04-02T04:16:13;97822.59;;;7.39;75.45
34979;BME280;21185;50.978;13.720;2023-04-02T04:21:22;97832.94;;;7.39;75.30
34979;BME280;21185;50.978;13.720;2023-04-02T04:37:23;97862.16;;;7.22;75.07
34979;BME280;21185;50.978;13.720;2023-04-02T04:42:32;97870.81;;;7.12;74.65
34979;BME280;21185;50.978;13.720;2023-04-02T04:47:39;97878.72;;;6.93;75.58
34979;BME280;21185;50.978;13.720;2023-04-02T04:52:43;97891.78;;;6.92;75.49
34979;BME280;21185;50.978;13.720;2023-04-02T04:57:48;97904.44;;;6.85;75.34
34979;BME280;21185;50.978;13.720;2023-04-02T05:03:03;97907.97;;;6.84;75.28
34979;BME280;21185;50.978;13.720;2023-04-02T05:08:19;97923.81;;;6.89;75.39
34979;BME280;21185;50.978;13.720;2023-04-02T05:13:39;97937.75;;;6.96;74.95
34979;BME280;21185;50.978;13.720;2023-04-02T05:29:19;97980.75;;;6.60;75.04
34979;BME280;21185;50.978;13.720;2023-04-02T05:34:27;97992.72;;;6.52;75.09
34979;BME280;21185;50.978;13.720;2023-04-02T05:39:31;98000.22;;;6.45;75.07
34979;BME280;21185;50.978;13.720;2023-04-02T05:44:44;98019.69;;;6.30;75.37
34979;BME280;21185;50.978;13.720;2023-04-02T05:50:13;98017.81;;;6.22;75.69
34979;BME280;21185;50.978;13.720;2023-04-02T05:55:28;98022.97;;;6.22;75.58
34979;BME280;21185;50.978;13.720;2023-04-02T06:05:45;98046.78;;;6.34;75.16
34979;BME280;21185;50.978;13.720;2023-04-02T06:11:06;98058.75;;;6.25;75.32
34979;BME280;21185;50.978;13.720;2023-04-02T06:16:14;98061.75;;;6.21;75.37
34979;BME280;21185;50.978;13.720;2023-04-02T06:21:19;98071.78;;;6.14;75.12
34979;BME280;21185;50.978;13.720;2023-04-02T06:26:46;98083.19;;;6.11;74.91
34979;BME280;21185;50.978;13.720;2023-04-02T06:31:55;98095.13;;;6.12;74.76
34979;BME280;21185;50.978;13.720;2023-04-02T06:37:11;98109.63;;;6.13;74.70
34979;BME280;21185;50.978;13.720;2023-04-02T06:42:25;98119.41;;;6.10;74.35
34979;BME280;21185;50.978;13.720;2023-04-02T06:48:03;98128.75;;;6.11;74.48
34979;BME280;21185;50.978;13.720;2023-04-02T06:53:36;98144.63;;;6.06;74.60
34979;BME280;21185;50.978;13.720;2023-04-02T06:58:40;98160.22;;;6.05;74.46
34979;BME280;21185;50.978;13.720;2023-04-02T07:03:42;98165.34;;;6.05;74.54
34979;BME280;21185;50.978;13.720;2023-04-02T07:08:51;98171.72;;;6.01;74.57
34979;BME280;21185;50.978;13.720;2023-04-02T07:13:55;98179.47;;;6.01;74.67
34979;BME280;21185;50.978;13.720;2023-04-02T07:18:59;98183.53;;;6.03;74.65
34979;BME280;21185;50.978;13.720;2023-04-02T07:24:05;98197.88;;;5.96;74.49
34979;BME280;21185;50.978;13.720;2023-04-02T07:29:11;98202.22;;;5.96;74.53
34979;BME280;21185;50.978;13.720;2023-04-02T07:34:15;98216.06;;;5.95;74.55
34979;BME280;21185;50.978;13.720;2023-04-02T07:39:17;98225.22;;;5.88;74.67
34979;BME280;21185;50.978;13.720;2023-04-02T07:44:19;98234.84;;;5.85;74.43
34979;BME280;21185;50.978;13.720;2023-04-02T07:49:21;98243.91;;;5.80;74.79
34979;BME280;21185;50.978;13.720;2023-04-02T07:54:23;98253.28;;;5.81;74.55
34979;BME280;21185;50.978;13.720;2023-04-02T07:59:28;98263.72;;;5.79;74.59
34979;BME280;21185;50.978;13.720;2023-04-02T08:04:30;98276.31;;;5.82;74.54
34979;BME280;21185;50.978;13.720;2023-04-02T08:09:32;98282.28;;;5.83;74.22
34979;BME280;21185;50.978;13.720;2023-04-02T08:14:34;98286.34;;;5.85;74.52
34979;BME280;21185;50.978;13.720;2023-04-02T08:19:37;98298.72;;;5.92;74.30
34979;BME280;21185;50.978;13.720;2023-04-02T08:24:56;98305.50;;;5.93;73.63
34979;BME280;21185;50.978;13.720;2023-04-02T08:29:58;98311.41;;;5.83;73.94
34979;BME280;21185;50.978;13.720;2023-04-02T08:35:00;98318.47;;;5.81;74.04
34979;BME280;21185;50.978;13.720;2023-04-02T08:40:17;98330.78;;;5.78;74.15
34979;BME280;21185;50.978;13.720;2023-04-02T08:50:41;98350.69;;;5.76;74.11
34979;BME280;21185;50.978;13.720;2023-04-02T08:55:56;98351.88;;;5.62;73.97
34979;BME280;21185;50.978;13.720;2023-04-02T09:06:41;98369.06;;;5.62;74.10
34979;BME280;21185;50.978;13.720;2023-04-02T09:11:57;98373.41;;;5.61;73.73
34979;BME280;21185;50.978;13.720;2023-04-02T09:17:02;98381.81;;;5.63;73.91
34979;BME280;21185;50.978;13.720;2023-04-02T09:22:22;98392.41;;;5.70;73.71
34979;BME280;21185;50.978;13.720;2023-04-02T09:27:27;98400.94;;;5.70;73.42
34979;BME280;21185;50.978;13.720;2023-04-02T09:37:47;98416.91;;;5.64;73.25
34979;BME280;21185;50.978;13.720;2023-04-02T09:43:13;98431.59;;;5.73;72.99
34979;BME280;21185;50.978;13.720;2023-04-02T09:53:39;98440.19;;;5.83;72.46
34979;BME280;21185;50.978;13.720;2023-04-02T09:58:44;98451.81;;;5.78;72.14
34979;BME280;21185;50.978;13.720;2023-04-02T10:03:47;98466.38;;;5.68;72.09
34979;BME280;21185;50.978;13.720;2023-04-02T10:08:51;98470.84;;;5.66;72.44
34979;BME280;21185;50.978;13.720;2023-04-02T10:14:05;98483.41;;;5.59;72.39
34979;BME280;21185;50.978;13.720;2023-04-02T10:24:33;98503.09;;;5.49;72.47
34979;BME280;21185;50.978;13.720;2023-04-02T10:56:02;98544.94;;;5.62;72.62
34979;BME280;21185;50.978;13.720;2023-04-02T11:01:20;98552.22;;;5.57;72.89
34979;BME280;21185;50.978;13.720;2023-04-02T11:06:40;98551.97;;;5.60;72.82
34979;BME280;21185;50.978;13.720;2023-04-02T11:11:47;98558.50;;;5.64;72.83
34979;BME280;21185;50.978;13.720;2023-04-02T11:16:52;98576.88;;;5.60;72.99
34979;BME280;21185;50.978;13.720;2023-04-02T11:21:59;98587.75;;;5.63;72.53
34979;BME280;21185;50.978;13.720;2023-04-02T11:37:39;98594.97;;;5.69;72.62
34979;BME280;21185;50.978;13.720;2023-04-02T11:42:46;98602.28;;;5.85;72.33
34979;BME280;21185;50.978;13.720;2023-04-02T12:09:24;98624.19;;;6.11;71.76
34979;BME280;21185;50.978;13.720;2023-04-02T12:14:46;98633.19;;;6.17;71.74
34979;BME280;21185;50.978;13.720;2023-04-02T12:19:55;98636.72;;;6.16;71.70
34979;BME280;21185;50.978;13.720;2023-04-02T12:30:22;98652.16;;;6.16;71.48
34979;BME280;21185;50.978;13.720;2023-04-02T12:35:31;98665.75;;;6.18;71.50
34979;BME280;21185;50.978;13.720;2023-04-02T12:40:33;98666.69;;;6.17;71.60
34979;BME280;21185;50.978;13.720;2023-04-02T12:45:36;98668.69;;;6.13;71.67
34979;BME280;21185;50.978;13.720;2023-04-02T12:50:38;98664.69;;;6.21;71.31
34979;BME280;21185;50.978;13.720;2023-04-02T12:55:46;98663.34;;;6.26;71.41
34979;BME280;21185;50.978;13.720;2023-04-02T13:00:49;98673.72;;;6.36;71.45
34979;BME280;21185;50.978;13.720;2023-04-02T13:05:55;98670.84;;;6.50;71.22
34979;BME280;21185;50.978;13.720;2023-04-02T13:11:02;98684.97;;;6.56;71.02
34979;BME280;21185;50.978;13.720;2023-04-02T13:26:21;98696.25;;;6.55;70.65
34979;BME280;21185;50.978;13.720;2023-04-02T13:31:23;98703.47;;;6.61;70.63
34979;BME280;21185;50.978;13.720;2023-04-02T13:36:25;98705.84;;;6.53;70.54
34979;BME280;21185;50.978;13.720;2023-04-02T13:41:38;98715.16;;;6.44;70.46
34979;BME280;21185;50.978;13.720;2023-04-02T13:46:40;98725.84;;;6.39;70.20
34979;BME280;21185;50.978;13.720;2023-04-02T13:51:47;98731.25;;;6.36;70.27
34979;BME280;21185;50.978;13.720;2023-04-02T13:56:49;98741.94;;;6.32;70.15
34979;BME280;21185;50.978;13.720;2023-04-02T14:01:57;98745.44;;;6.31;69.95
34979;BME280;21185;50.978;13.720;2023-04-02T14:12:27;98744.09;;;6.47;70.24
34979;BME280;21185;50.978;13.720;2023-04-02T14:28:43;98771.56;;;6.37;69.51
34979;BME280;21185;50.978;13.720;2023-04-02T14:44:07;98786.84;;;6.18;69.58
34979;BME280;21185;50.978;13.720;2023-04-02T14:54:35;98796.38;;;6.06;69.24
34979;BME280;21185;50.978;13.720;2023-04-02T15:10:27;98806.44;;;6.09;69.44
34979;BME280;21185;50.978;13.720;2023-04-02T15:15:45;98806.44;;;6.09;69.33
34979;BME280;21185;50.978;13.720;2023-04-02T15:26:30;98818.00;;;6.15;68.89
34979;BME280;21185;50.978;13.720;2023-04-02T15:31:41;98825.16;;;6.11;68.86
34979;BME280;21185;50.978;13.720;2023-04-02T15:37:03;98826.81;;;6.12;69.10
34979;BME280;21185;50.978;13.720;2023-04-02T15:42:22;98830.31;;;6.11;68.92
34979;BME280;21185;50.978;13.720;2023-04-02T15:47:57;98845.78;;;6.11;68.61
34979;BME280;21185;50.978;13.720;2023-04-02T15:58:38;98853.38;;;6.13;68.45
34979;BME280;21185;50.978;13.720;2023-04-02T16:04:15;98860.06;;;6.15;68.30
34979;BME280;21185;50.978;13.720;2023-04-02T16:09:39;98871.19;;;6.16;68.45
34979;BME280;21185;50.978;13.720;2023-04-02T16:14:47;98868.59;;;6.16;68.26
34979;BME280;21185;50.978;13.720;2023-04-02T16:19:53;98869.53;;;6.15;68.36
34979;BME280;21185;50.978;13.720;2023-04-02T16:25:16;98876.34;;;6.16;68.42
34979;BME280;21185;50.978;13.720;2023-04-02T16:46:25;98904.31;;;6.21;68.36
34979;BME280;21185;50.978;13.720;2023-04-02T16:52:04;98913.81;;;6.20;68.39
34979;BME280;21185;50.978;13.720;2023-04-02T16:57:19;98909.59;;;6.19;68.09
34979;BME280;21185;50.978;13.720;2023-04-02T17:07:56;98924.34;;;6.17;68.19
34979;BME280;21185;50.978;13.720;2023-04-02T17:13:38;98939.13;;;6.15;68.15
34979;BME280;21185;50.978;13.720;2023-04-02T17:18:42;98937.47;;;6.14;68.16
34979;BME280;21185;50.978;13.720;2023-04-02T17:24:41;98939.25;;;6.13;68.26
34979;BME280;21185;50.978;13.720;2023-04-02T17:29:44;98946.16;;;6.13;67.97
34979;BME280;21185;50.978;13.720;2023-04-02T17:34:48;98947.91;;;6.12;68.34
34979;BME280;21185;50.978;13.720;2023-04-02T17:40:24;98945.69;;;6.19;68.07
34979;BME280;21185;50.978;13.720;2023-04-02T17:50:53;98959.72;;;6.15;68.34
34979;BME280;21185;50.978;13.720;2023-04-02T18:01:11;98964.66;;;6.18;68.55
34979;BME280;21185;50.978;13.720;2023-04-02T18:21:24;98982.44;;;6.10;68.63
34979;BME280;21185;50.978;13.720;2023-04-02T18:31:49;99001.19;;;6.12;68.86
34979;BME280;21185;50.978;13.720;2023-04-02T18:48:08;99023.09;;;6.06;68.82
34979;BME280;21185;50.978;13.720;2023-04-02T18:53:19;99025.56;;;6.08;69.09
34979;BME280;21185;50.978;13.720;2023-04-02T18:58:55;99032.56;;;6.06;68.85
34979;BME280;21185;50.978;13.720;2023-04-02T19:04:08;99034.44;;;6.04;68.86
34979;BME280;21185;50.978;13.720;2023-04-02T19:09:15;99042.19;;;6.04;68.90
34979;BME280;21185;50.978;13.720;2023-04-02T19:14:21;99047.22;;;6.05;69.07
34979;BME280;21185;50.978;13.720;2023-04-02T19:19:26;99056.69;;;6.05;69.02
34979;BME280;21185;50.978;13.720;2023-04-02T19:40:53;99072.38;;;6.02;68.95
34979;BME280;21185;50.978;13.720;2023-04-02T19:45:59;99068.28;;;5.99;69.16
34979;BME280;21185;50.978;13.720;2023-04-02T19:51:02;99080.22;;;6.00;69.16
34979;BME280;21185;50.978;13.720;2023-04-02T19:56:04;99075.06;;;6.00;69.12
34979;BME280;21185;50.978;13.720;2023-04-02T20:01:06;99080.22;;;6.00;69.17
34979;BME280;21185;50.978;13.720;2023-04-02T20:06:09;99083.75;;;5.99;69.36
34979;BME280;21185;50.978;13.720;2023-04-02T20:11:11;99084.44;;;6.01;69.22
34979;BME280;21185;50.978;13.720;2023-04-02T20:16:13;99084.56;;;6.00;69.26
34979;BME280;21185;50.978;13.720;2023-04-02T20:21:15;99096.72;;;5.98;69.22
34979;BME280;21185;50.978;13.720;2023-04-02T20:26:17;99094.16;;;5.98;69.10
34979;BME280;21185;50.978;13.720;2023-04-02T20:31:19;99102.09;;;5.95;69.25
34979;BME280;21185;50.978;13.720;2023-04-02T20:36:22;99104.78;;;5.93;69.18
34979;BME280;21185;50.978;13.720;2023-04-02T20:41:25;99108.41;;;5.91;69.44
34979;BME280;21185;50.978;13.720;2023-04-02T20:46:28;99122.22;;;5.90;69.38
34979;BME280;21185;50.978;13.720;2023-04-02T20:51:30;99130.16;;;5.86;69.07
34979;BME280;21185;50.978;13.720;2023-04-02T20:56:32;99129.22;;;5.88;69.08
34979;BME280;21185;50.978;13.720;2023-04-02T21:01:34;99131.78;;;5.88;69.15
34979;BME280;21185;50.978;13.720;2023-04-02T21:06:37;99128.50;;;5.85;69.11
34979;BME280;21185;50.978;13.720;2023-04-02T21:11:40;99136.22;;;5.85;68.94
34979;BME280;21185;50.978;13.720;2023-04-02T21:16:42;99140.69;;;5.83;68.86
34979;BME280;21185;50.978;13.720;2023-04-02T21:21:44;99137.38;;;5.81;69.01
34979;BME280;21185;50.978;13.720;2023-04-02T21:26:46;99144.41;;;5.79;68.94
34979;BME280;21185;50.978;13.720;2023-04-02T21:31:48;99146.25;;;5.77;68.94
34979;BME280;21185;50.978;13.720;2023-04-02T21:36:51;99142.88;;;5.77;69.05
34979;BME280;21185;50.978;13.720;2023-04-02T21:41:52;99154.94;;;5.76;68.61
34979;BME280;21185;50.978;13.720;2023-04-02T21:46:55;99156.56;;;5.77;68.54
34979;BME280;21185;50.978;13.720;2023-04-02T21:51:57;99153.28;;;5.75;68.52
34979;BME280;21185;50.978;13.720;2023-04-02T21:56:59;99158.66;;;5.72;68.26
34979;BME280;21185;50.978;13.720;2023-04-02T22:02:01;99158.06;;;5.69;68.09
34979;BME280;21185;50.978;13.720;2023-04-02T22:07:03;99170.22;;;5.67;68.33
34979;BME280;21185;50.978;13.720;2023-04-02T22:12:05;99179.91;;;5.63;67.86
34979;BME280;21185;50.978;13.720;2023-04-02T22:17:08;99180.00;;;5.62;67.96
34979;BME280;21185;50.978;13.720;2023-04-02T22:22:10;99183.75;;;5.58;67.98
34979;BME280;21185;50.978;13.720;2023-04-02T22:27:12;99194.16;;;5.56;67.77
34979;BME280;21185;50.978;13.720;2023-04-02T22:32:14;99192.50;;;5.55;67.61
34979;BME280;21185;50.978;13.720;2023-04-02T22:37:16;99189.00;;;5.56;67.63
34979;BME280;21185;50.978;13.720;2023-04-02T22:42:18;99191.78;;;5.53;67.29
34979;BME280;21185;50.978;13.720;2023-04-02T22:47:21;99200.66;;;5.49;67.09
34979;BME280;21185;50.978;13.720;2023-04-02T22:52:23;99210.22;;;5.47;67.25
34979;BME280;21185;50.978;13.720;2023-04-02T22:57:24;99215.59;;;5.44;66.97
34979;BME280;21185;50.978;13.720;2023-04-02T23:02:26;99220.13;;;5.40;67.20
34979;BME280;21185;50.978;13.720;2023-04-02T23:07:28;99220.25;;;5.39;67.32
34979;BME280;21185;50.978;13.720;2023-04-02T23:12:31;99223.97;;;5.35;67.08
34979;BME280;21185;50.978;13.720;2023-04-02T23:17:33;99227.66;;;5.31;67.01
34979;BME280;21185;50.978;13.720;2023-04-02T23:22:36;99235.59;;;5.28;66.86
34979;BME280;21185;50.978;13.720;2023-04-02T23:27:38;99234.97;;;5.24;66.46
34979;BME280;21185;50.978;13.720;2023-04-02T23:32:41;99244.66;;;5.20;66.55
34979;BME280;21185;50.978;13.720;2023-04-02T23:37:43;99235.75;;;5.13;66.47
34979;BME280;21185;50.978;13.720;2023-04-02T23:42:45;99238.53;;;5.10;66.55
34979;BME280;21185;50.978;13.720;2023-04-02T23:47:47;99235.44;;;5.05;66.18
34979;BME280;21185;50.978;13.720;2023-04-02T23:52:49;99247.59;;;5.03;66.23
34979;BME280;21185;50.978;13.720;2023-04-02T23:57:51;99244.28;;;5.01;66.15
